Aérodrome :
LOGIN :

S'inscrire | Disclaimer

   EN    FR    IT 

 










Légende :    VFR   VFR Marginal   IFR   IFR Intensif   IFR Très Intensif
Visi : 
Plafond : 
>= 8 km
>= 3000ft
5 à 8 km
1000 à 3000 ft
1500m à 5 km
500 à 1000 ft
800 à 1500m
200 à 500 ft
< 800m
< 200 ft
Symboles :   Orages  Brouillard  Fortes neiges  Fortes précipitations  Vent > 20 kt
SIGMETs :   Divers  Orages  Givrage  Turbulence  Onde Orograph.  Cendres Volcan.






- Altitude de l'aérodrome : 1558 ft
- Code IATA : IOA


LGIO - Ioannina

DERNIER METAR :
  • 070920Z 10015G27KT 040V160 9999 SCT040 14/M10 Q1015

METARs EXPIRÉS :
  • 070850Z 10010G20KT 030V180 9999 SCT040 13/M09 Q1015
  • 070820Z 10012G22KT 030V180 9999 SCT035 12/M09 Q1015
  • 070750Z 32014G25KT 270V030 9999 SCT035 13/M08 Q1015
  • 070650Z 23007G17KT 180V270 9999 SCT030 11/M07 Q1014

TAF TAF LGIO
Valide du 07 à 09h jusqu'au 07 à 19h UTC


070800Z 0709/0719 05015KT CAVOK
TEMPO 0709/0718 05015G25KT



MET'MAP, la Météo Aéronautique d'un coup d'oeil ! - Copyright ORBIFLY Décembre 2007 - Disclaimer

ORBIFLY MET'MAP TEAM :

Programmation & Développement : Alexandra Zaïnal
Sur une idée originale de : Baudouin d'Aumeries
Assistance à la programmation : Marc-Olivier Méhu
Soutien technique & logistique : Manuel Goepfert

Contact : metmap@orbifly.com




SOURCES & CREDITS :

   NOAA